Time;durP1;ratioP1;P1;durP2;ratioP2;P2;SDS_P1;SDS_P2;PMS_P1;PMS_P2;Temp;Humidity;BMP_temperature;BMP_pressure;BME280_temperature;BME280_humidity;BME280_pressure;Samples;Min_cycle;Max_cycle;Signal;HPM_P1;HPM_P2
2023/03/02 00:02:23;;;;;;;41.45;21.15;;;1.50;99.90;;;;;;5033960;28;20025;-79
2023/03/02 00:04:55;;;;;;;40.42;19.52;;;1.50;99.90;;;;;;5032155;28;20068;-79
2023/03/02 00:07:25;;;;;;;40.38;19.23;;;1.50;99.90;;;;;;5035222;28;20067;-79
2023/03/02 00:09:52;;;;;;;40.38;19.38;;;1.50;99.90;;;;;;5032745;28;20130;-79
2023/03/02 00:12:17;;;;;;;38.92;20.77;;;1.50;99.90;;;;;;5034525;28;20060;-79
2023/03/02 00:14:44;;;;;;;40.40;20.00;;;1.40;99.90;;;;;;5035808;28;20029;-79
2023/03/02 00:17:10;;;;;;;43.42;20.77;;;1.40;99.90;;;;;;5027440;28;20391;-79
2023/03/02 00:19:35;;;;;;;39.10;19.52;;;1.40;99.90;;;;;;5023154;28;20030;-79
2023/03/02 00:22:01;;;;;;;38.83;19.83;;;1.40;99.90;;;;;;5026234;28;20030;-79
2023/03/02 00:24:27;;;;;;;35.70;17.85;;;1.30;99.90;;;;;;5024290;28;20511;-79
2023/03/02 00:26:52;;;;;;;40.55;19.90;;;1.30;99.90;;;;;;5025347;28;20459;-80
2023/03/02 00:29:18;;;;;;;32.97;17.30;;;1.30;99.90;;;;;;5025216;28;20494;-79
2023/03/02 00:31:44;;;;;;;36.30;18.10;;;1.20;99.90;;;;;;5025823;28;20034;-80
2023/03/02 00:34:10;;;;;;;42.20;20.77;;;1.20;99.90;;;;;;5023156;28;20156;-79
2023/03/02 00:36:36;;;;;;;39.28;19.20;;;1.20;99.90;;;;;;5029803;28;20464;-79
2023/03/02 00:39:03;;;;;;;40.03;18.23;;;1.20;99.90;;;;;;5027111;28;20086;-78
2023/03/02 00:41:29;;;;;;;37.90;18.40;;;1.20;99.90;;;;;;5027985;28;20030;-79
2023/03/02 00:43:55;;;;;;;43.83;20.70;;;1.20;99.90;;;;;;5027519;28;20025;-79
2023/03/02 00:46:23;;;;;;;38.33;19.02;;;1.20;99.90;;;;;;5025849;28;20033;-78
2023/03/02 00:48:49;;;;;;;36.90;18.27;;;1.20;99.90;;;;;;5023030;28;20030;-79
2023/03/02 00:51:15;;;;;;;38.53;19.85;;;1.20;99.90;;;;;;5030197;28;20025;-79
2023/03/02 00:53:41;;;;;;;38.92;18.17;;;1.10;99.90;;;;;;5028678;28;20505;-79
2023/03/02 00:56:08;;;;;;;41.25;18.92;;;1.10;99.90;;;;;;5029353;28;20064;-79
2023/03/02 00:58:34;;;;;;;38.25;18.00;;;1.00;99.90;;;;;;5028504;28;20033;-80
2023/03/02 01:01:06;;;;;;;38.50;18.13;;;1.00;99.90;;;;;;5025659;28;20081;-80
2023/03/02 01:03:32;;;;;;;38.97;18.77;;;1.00;99.90;;;;;;5026174;28;20044;-78
2023/03/02 01:05:57;;;;;;;38.83;18.35;;;1.00;99.90;;;;;;5041274;28;20378;-79
2023/03/02 01:08:24;;;;;;;40.60;19.58;;;1.10;99.90;;;;;;5043298;28;20041;-78
2023/03/02 01:10:51;;;;;;;35.88;18.02;;;1.10;99.90;;;;;;5040685;28;20025;-79
2023/03/02 01:13:18;;;;;;;35.28;18.63;;;1.00;99.90;;;;;;5044366;28;20053;-78
2023/03/02 01:15:44;;;;;;;38.30;18.85;;;1.00;99.90;;;;;;5039639;28;20127;-78
2023/03/02 01:18:10;;;;;;;36.80;18.13;;;1.00;99.90;;;;;;5045807;28;20104;-77
2023/03/02 01:20:35;;;;;;;38.35;19.80;;;1.00;99.90;;;;;;5036190;28;20033;-79
2023/03/02 01:23:01;;;;;;;48.13;20.80;;;1.00;99.90;;;;;;5042538;28;20389;-78
2023/03/02 01:25:26;;;;;;;35.90;18.48;;;1.00;99.90;;;;;;5043340;28;20085;-78
2023/03/02 01:27:52;;;;;;;36.47;17.85;;;1.00;99.90;;;;;;5042962;28;20025;-79
2023/03/02 01:30:18;;;;;;;36.67;17.08;;;1.00;99.90;;;;;;5037294;28;20081;-79
2023/03/02 01:32:44;;;;;;;43.30;19.73;;;1.00;99.90;;;;;;5041272;28;20058;-79
2023/03/02 01:35:10;;;;;;;38.03;18.50;;;1.00;99.90;;;;;;5043837;28;20060;-79
2023/03/02 01:37:35;;;;;;;40.20;18.25;;;1.00;99.90;;;;;;5042621;28;20036;-78
2023/03/02 01:40:05;;;;;;;38.22;18.55;;;1.00;99.90;;;;;;5039840;28;20141;-79
2023/03/02 01:42:37;;;;;;;38.35;18.38;;;1.00;99.90;;;;;;5043168;28;20017;-80
2023/03/02 01:45:03;;;;;;;37.15;18.85;;;1.00;99.90;;;;;;5043057;28;20032;-80
2023/03/02 01:47:33;;;;;;;40.67;18.88;;;1.10;99.90;;;;;;5034586;28;20017;-79
2023/03/02 01:50:25;;;;;;;37.05;18.13;;;1.20;99.90;;;;;;5024504;28;20144;-79
2023/03/02 01:52:52;;;;;;;39.72;19.45;;;1.20;99.90;;;;;;5027536;28;20037;-79
2023/03/02 01:55:26;;;;;;;37.78;17.00;;;1.20;99.90;;;;;;5023843;28;20033;-78
2023/03/02 01:57:55;;;;;;;42.33;18.60;;;1.20;99.90;;;;;;5024363;28;20382;-77
2023/03/02 02:00:24;;;;;;;37.03;18.70;;;1.20;99.90;;;;;;5025927;28;20164;-78
2023/03/02 02:02:51;;;;;;;37.92;18.95;;;1.20;99.90;;;;;;5023211;28;20021;-77
2023/03/02 02:05:24;;;;;;;39.70;18.73;;;1.20;99.90;;;;;;5030292;28;20032;-77
2023/03/02 02:07:50;;;;;;;36.72;17.75;;;1.20;99.90;;;;;;5024940;28;20021;-78
2023/03/02 02:10:15;;;;;;;37.83;18.60;;;1.20;99.90;;;;;;5023222;28;20111;-78
2023/03/02 02:12:41;;;;;;;36.92;19.05;;;1.20;99.90;;;;;;5023861;28;20061;-77
2023/03/02 02:15:07;;;;;;;40.00;19.38;;;1.20;99.90;;;;;;5021141;28;20037;-77
2023/03/02 02:17:33;;;;;;;39.63;19.13;;;1.20;99.90;;;;;;5024445;28;20064;-78
2023/03/02 02:19:59;;;;;;;37.97;18.05;;;1.10;99.90;;;;;;5019778;28;20032;-78
2023/03/02 02:22:42;;;;;;;40.95;19.65;;;1.10;99.90;;;;;;5023822;28;20041;-78
2023/03/02 02:25:42;;;;;;;44.65;19.88;;;1.20;99.90;;;;;;5022654;28;20076;-78
2023/03/02 02:28:18;;;;;;;43.90;19.27;;;1.20;99.90;;;;;;5022583;28;20117;-78
2023/03/02 02:30:44;;;;;;;42.63;19.67;;;1.30;99.90;;;;;;5022072;28;20102;-78
2023/03/02 02:33:16;;;;;;;43.95;19.98;;;1.30;99.90;;;;;;5024015;28;20029;-79
2023/03/02 02:35:46;;;;;;;43.80;20.30;;;1.30;99.90;;;;;;5022970;28;20036;-77
2023/03/02 02:38:14;;;;;;;40.70;19.60;;;1.30;99.90;;;;;;5020666;28;20501;-78
2023/03/02 02:40:59;;;;;;;37.88;18.67;;;1.30;99.90;;;;;;5022892;28;20051;-78
2023/03/02 02:43:27;;;;;;;42.90;19.13;;;1.30;99.90;;;;;;5024794;28;20550;-78
2023/03/02 02:45:55;;;;;;;39.03;19.23;;;1.20;99.90;;;;;;5022209;28;20045;-79
2023/03/02 02:48:23;;;;;;;38.63;18.92;;;1.20;99.90;;;;;;5020937;28;20083;-79
2023/03/02 02:50:59;;;;;;;40.35;18.48;;;1.20;99.90;;;;;;5021048;28;20082;-78
2023/03/02 02:53:57;;;;;;;42.67;19.95;;;1.20;99.90;;;;;;5022182;28;20121;-78
2023/03/02 02:56:26;;;;;;;42.28;20.73;;;1.20;99.90;;;;;;5018980;23;20053;-79
2023/03/02 02:58:54;;;;;;;37.65;18.40;;;1.30;99.90;;;;;;5009381;28;20101;-79
2023/03/02 03:01:25;;;;;;;38.53;18.75;;;1.30;99.90;;;;;;5009685;28;20021;-79
2023/03/02 03:03:54;;;;;;;38.78;19.25;;;1.30;99.90;;;;;;5010094;28;20030;-80
2023/03/02 03:06:24;;;;;;;36.90;18.58;;;1.30;99.90;;;;;;5007456;28;20459;-80
2023/03/02 03:08:52;;;;;;;39.35;18.52;;;1.30;99.90;;;;;;5007843;28;20026;-79
2023/03/02 03:11:23;;;;;;;39.40;18.77;;;1.20;99.90;;;;;;5009476;28;20125;-79
2023/03/02 03:13:56;;;;;;;42.13;19.58;;;1.20;99.90;;;;;;5001271;28;20125;-79
2023/03/02 03:16:24;;;;;;;39.87;20.00;;;1.20;99.90;;;;;;5003051;28;20414;-79
2023/03/02 03:18:51;;;;;;;40.22;19.85;;;1.20;99.90;;;;;;5006461;28;20044;-79
2023/03/02 03:21:17;;;;;;;36.60;18.48;;;1.20;99.90;;;;;;5006314;28;20022;-80
2023/03/02 03:23:43;;;;;;;41.72;19.48;;;1.20;99.90;;;;;;5011526;28;20443;-80
2023/03/02 03:26:09;;;;;;;41.72;20.05;;;1.20;99.90;;;;;;5010475;28;20104;-80
2023/03/02 03:28:35;;;;;;;38.40;19.58;;;1.20;99.90;;;;;;5007850;28;20038;-80
2023/03/02 03:31:01;;;;;;;38.80;18.52;;;1.20;99.90;;;;;;5007405;28;20037;-79
2023/03/02 03:33:27;;;;;;;41.92;19.23;;;1.20;99.90;;;;;;5008007;28;20037;-79
2023/03/02 03:35:53;;;;;;;41.58;19.42;;;1.20;99.90;;;;;;5005972;28;20036;-79
2023/03/02 03:38:18;;;;;;;40.28;19.25;;;1.20;99.90;;;;;;5004441;28;20445;-79
2023/03/02 03:40:44;;;;;;;40.17;19.00;;;1.20;99.90;;;;;;5001895;28;20061;-80
2023/03/02 03:43:12;;;;;;;36.25;18.60;;;1.10;99.90;;;;;;5002657;28;20033;-79
2023/03/02 03:45:38;;;;;;;45.65;20.15;;;1.10;99.90;;;;;;5004010;28;20437;-79
2023/03/02 03:48:04;;;;;;;43.75;19.45;;;1.10;99.90;;;;;;5007403;28;20034;-79
2023/03/02 03:50:30;;;;;;;40.88;19.95;;;1.10;99.90;;;;;;5009185;28;20030;-80
2023/03/02 03:52:55;;;;;;;42.03;19.90;;;1.10;99.90;;;;;;5008862;28;20549;-79
2023/03/02 03:55:21;;;;;;;36.63;18.45;;;1.10;99.90;;;;;;5006687;28;20521;-79
2023/03/02 03:57:47;;;;;;;37.67;19.00;;;1.10;99.90;;;;;;5005687;28;20045;-79
2023/03/02 04:00:16;;;;;;;46.70;20.73;;;1.00;99.90;;;;;;5012878;28;20140;-79
2023/03/02 04:02:41;;;;;;;43.88;19.95;;;1.00;99.90;;;;;;5009319;28;20021;-79
2023/03/02 04:05:08;;;;;;;36.65;18.75;;;1.00;99.90;;;;;;5012628;28;20446;-80
2023/03/02 04:07:36;;;;;;;42.25;19.33;;;1.10;99.90;;;;;;5011002;28;20862;-79
2023/03/02 04:10:03;;;;;;;41.58;18.85;;;1.10;99.90;;;;;;5011502;28;20030;-80
2023/03/02 04:12:31;;;;;;;39.47;19.95;;;1.10;99.90;;;;;;5012345;28;20029;-79
2023/03/02 04:14:56;;;;;;;37.83;19.08;;;1.10;99.90;;;;;;5010864;28;20729;-80
2023/03/02 04:17:22;;;;;;;41.72;19.85;;;1.10;99.90;;;;;;5015668;28;20034;-78
2023/03/02 04:19:48;;;;;;;39.50;19.02;;;1.10;99.90;;;;;;5013533;28;20032;-79
2023/03/02 04:22:15;;;;;;;39.17;18.60;;;1.10;99.90;;;;;;5009877;28;20025;-79
2023/03/02 04:24:41;;;;;;;40.15;17.55;;;1.10;99.90;;;;;;5011958;28;20021;-78
2023/03/02 04:27:07;;;;;;;41.67;19.75;;;1.10;99.90;;;;;;5014446;28;20021;-80
2023/03/02 04:29:33;;;;;;;40.28;19.60;;;1.10;99.90;;;;;;5008854;28;20064;-80
2023/03/02 04:31:59;;;;;;;39.35;18.95;;;1.10;99.90;;;;;;5011297;28;20161;-79
2023/03/02 04:34:25;;;;;;;41.13;19.73;;;1.00;99.90;;;;;;5010744;28;20492;-77
2023/03/02 04:36:51;;;;;;;39.30;18.90;;;1.10;99.90;;;;;;5006790;28;20033;-80
2023/03/02 04:39:17;;;;;;;41.72;19.15;;;1.10;99.90;;;;;;5007964;28;20118;-80
2023/03/02 04:41:44;;;;;;;39.70;18.45;;;1.10;99.90;;;;;;5012017;28;20035;-80
2023/03/02 04:44:10;;;;;;;42.58;18.77;;;1.10;99.90;;;;;;5009574;28;20049;-81
2023/03/02 04:46:36;;;;;;;40.92;19.35;;;1.10;99.90;;;;;;5004608;28;20060;-80
2023/03/02 04:49:03;;;;;;;34.78;17.50;;;1.10;99.90;;;;;;5008684;28;20062;-79
2023/03/02 04:51:31;;;;;;;35.05;17.05;;;1.00;99.90;;;;;;5004509;28;20033;-78
2023/03/02 04:54:00;;;;;;;38.13;18.27;;;1.00;99.90;;;;;;5004571;28;20040;-78
2023/03/02 04:56:26;;;;;;;43.25;20.02;;;1.00;99.90;;;;;;5010418;28;20022;-80
2023/03/02 04:58:51;;;;;;;37.10;17.80;;;1.10;99.90;;;;;;5007317;28;21465;-78
2023/03/02 05:01:19;;;;;;;50.90;20.27;;;1.10;99.90;;;;;;5008903;28;20092;-79
2023/03/02 05:03:46;;;;;;;38.28;18.65;;;1.00;99.90;;;;;;5005100;28;20026;-78
2023/03/02 05:06:12;;;;;;;41.33;20.30;;;1.10;99.90;;;;;;5009603;28;20072;-78
2023/03/02 05:08:37;;;;;;;40.58;19.20;;;1.00;99.90;;;;;;5005488;28;20041;-78
2023/03/02 05:11:05;;;;;;;38.67;18.60;;;1.00;99.90;;;;;;4992541;28;20031;-78
2023/03/02 05:13:31;;;;;;;43.72;18.85;;;1.00;99.90;;;;;;5004470;28;20474;-77
2023/03/02 05:15:57;;;;;;;38.88;19.50;;;1.00;99.90;;;;;;5006520;28;20144;-78
2023/03/02 05:18:23;;;;;;;44.60;19.27;;;1.00;99.90;;;;;;5008196;28;20044;-77
2023/03/02 05:20:49;;;;;;;43.25;20.42;;;1.00;99.90;;;;;;5008183;28;20037;-78
2023/03/02 05:23:22;;;;;;;41.80;19.65;;;1.00;99.90;;;;;;5009378;28;20034;-78
2023/03/02 05:25:50;;;;;;;37.70;19.30;;;1.00;99.90;;;;;;5021244;28;20025;-78
2023/03/02 05:28:16;;;;;;;38.10;19.10;;;1.00;99.90;;;;;;4999877;28;20030;-78
2023/03/02 05:30:42;;;;;;;47.10;19.67;;;1.00;99.90;;;;;;5009662;28;20029;-78
2023/03/02 05:33:08;;;;;;;44.95;21.40;;;1.10;99.90;;;;;;5008200;28;20557;-78
2023/03/02 05:35:34;;;;;;;41.55;20.50;;;1.10;99.90;;;;;;5013975;28;20038;-79
2023/03/02 05:38:00;;;;;;;41.25;19.15;;;1.10;99.90;;;;;;5011498;28;20112;-79
2023/03/02 05:40:25;;;;;;;40.35;19.77;;;1.10;99.90;;;;;;5010279;28;20124;-79
2023/03/02 05:42:51;;;;;;;39.13;18.92;;;1.10;99.90;;;;;;5003132;28;20025;-78
2023/03/02 05:45:22;;;;;;;46.20;19.88;;;1.20;99.90;;;;;;5006759;28;20106;-78
2023/03/02 05:47:47;;;;;;;42.72;18.20;;;1.10;99.90;;;;;;5007107;28;20026;-78
2023/03/02 05:50:13;;;;;;;38.97;19.27;;;1.10;99.90;;;;;;5004652;28;20038;-78
2023/03/02 05:52:39;;;;;;;38.28;18.58;;;1.00;99.90;;;;;;5009989;28;20429;-77
2023/03/02 05:55:05;;;;;;;41.45;17.38;;;1.00;99.90;;;;;;5009762;28;20026;-78
2023/03/02 05:57:30;;;;;;;37.75;18.20;;;1.00;99.90;;;;;;5009272;28;20064;-78
2023/03/02 05:59:56;;;;;;;39.20;18.52;;;1.10;99.90;;;;;;5010199;28;20432;-78
2023/03/02 06:02:21;;;;;;;42.83;19.60;;;1.00;99.90;;;;;;5010101;28;20034;-78
2023/03/02 06:04:47;;;;;;;44.63;19.08;;;1.10;99.90;;;;;;5005276;28;20049;-78
2023/03/02 06:07:13;;;;;;;42.47;19.70;;;1.10;99.90;;;;;;5010395;28;20442;-78
2023/03/02 06:09:39;;;;;;;38.20;17.80;;;1.10;99.90;;;;;;5010047;28;20088;-78
2023/03/02 06:12:07;;;;;;;46.17;18.98;;;1.10;99.90;;;;;;5012291;28;20040;-78
2023/03/02 06:14:33;;;;;;;39.63;18.75;;;1.00;99.90;;;;;;5006430;28;20080;-78
2023/03/02 06:16:59;;;;;;;38.35;18.08;;;1.00;99.90;;;;;;5006035;28;20490;-78
2023/03/02 06:19:24;;;;;;;38.10;18.48;;;1.10;99.90;;;;;;5005021;28;20069;-78
2023/03/02 06:21:50;;;;;;;41.25;18.75;;;1.10;99.90;;;;;;5006692;28;20029;-78
2023/03/02 06:24:16;;;;;;;37.40;17.88;;;1.10;99.90;;;;;;5005661;28;20034;-78
2023/03/02 06:26:42;;;;;;;44.53;19.65;;;1.10;99.90;;;;;;5006574;28;20030;-79
2023/03/02 06:29:07;;;;;;;36.60;18.33;;;1.10;99.90;;;;;;5005692;28;20534;-78
2023/03/02 06:31:33;;;;;;;40.03;18.67;;;1.10;99.90;;;;;;5007159;28;20677;-79
2023/03/02 06:34:00;;;;;;;43.35;20.08;;;1.10;99.90;;;;;;5003400;28;20069;-78
2023/03/02 06:36:26;;;;;;;41.35;18.15;;;1.10;99.90;;;;;;5007877;28;20026;-79
2023/03/02 06:38:52;;;;;;;40.42;19.45;;;1.10;99.90;;;;;;5003751;28;20030;-79
2023/03/02 06:41:18;;;;;;;43.72;19.98;;;1.10;99.90;;;;;;5008650;28;20037;-79
2023/03/02 06:43:43;;;;;;;39.35;18.00;;;1.10;99.90;;;;;;5008143;28;20061;-79
2023/03/02 06:46:10;;;;;;;44.60;19.98;;;1.10;99.90;;;;;;5009059;28;20368;-78
2023/03/02 06:48:36;;;;;;;40.92;19.60;;;1.10;99.90;;;;;;5001748;28;20594;-78
2023/03/02 06:51:02;;;;;;;39.17;18.25;;;1.20;99.90;;;;;;5004312;28;20109;-78
2023/03/02 06:53:27;;;;;;;45.08;20.33;;;1.20;99.90;;;;;;5003857;28;20169;-78
2023/03/02 06:55:53;;;;;;;38.45;18.10;;;1.20;99.90;;;;;;5010918;28;20475;-79
2023/03/02 06:58:19;;;;;;;40.40;19.73;;;1.20;99.90;;;;;;5004141;28;20072;-81
2023/03/02 07:00:45;;;;;;;50.58;21.52;;;1.20;99.90;;;;;;5005565;28;20049;-79
2023/03/02 07:03:10;;;;;;;40.28;19.63;;;1.30;99.90;;;;;;5003693;28;20029;-79
2023/03/02 07:05:36;;;;;;;41.88;19.83;;;1.30;99.90;;;;;;5011047;28;20372;-80
2023/03/02 07:08:02;;;;;;;37.35;18.38;;;1.30;99.90;;;;;;4999570;28;20019;-78
2023/03/02 07:10:28;;;;;;;40.33;19.55;;;1.30;99.90;;;;;;5005494;28;20096;-77
2023/03/02 07:12:54;;;;;;;38.55;18.33;;;1.30;99.90;;;;;;5005526;28;20038;-77
2023/03/02 07:15:20;;;;;;;39.60;18.70;;;1.30;99.90;;;;;;4999132;28;20835;-77
2023/03/02 07:17:46;;;;;;;36.90;18.83;;;1.30;99.90;;;;;;5008297;28;20083;-79
2023/03/02 07:20:15;;;;;;;35.15;17.23;;;1.30;99.90;;;;;;5006304;28;20113;-80
2023/03/02 07:22:41;;;;;;;34.53;17.65;;;1.30;99.90;;;;;;5006500;28;20018;-77
2023/03/02 07:25:08;;;;;;;39.80;19.20;;;1.30;99.90;;;;;;5009516;28;20395;-78
2023/03/02 07:27:33;;;;;;;39.42;18.88;;;1.30;99.90;;;;;;5005740;28;20037;-78
2023/03/02 07:29:59;;;;;;;46.10;20.33;;;1.30;99.90;;;;;;5005718;28;20037;-79
2023/03/02 07:32:25;;;;;;;39.63;18.42;;;1.30;99.90;;;;;;5011254;28;20030;-78
2023/03/02 07:34:50;;;;;;;38.70;19.10;;;1.30;99.90;;;;;;5010907;28;20108;-77
2023/03/02 07:37:16;;;;;;;45.45;19.55;;;1.30;99.90;;;;;;5016141;28;20034;-77
2023/03/02 07:39:42;;;;;;;44.65;17.83;;;1.40;99.90;;;;;;5008120;28;20030;-77
2023/03/02 07:42:10;;;;;;;39.97;19.13;;;1.40;99.90;;;;;;5008729;28;20021;-79
2023/03/02 07:44:36;;;;;;;38.15;17.77;;;1.40;99.90;;;;;;5009866;28;20116;-78
2023/03/02 07:47:01;;;;;;;38.50;18.33;;;1.40;99.90;;;;;;5010322;28;21265;-78
2023/03/02 07:49:27;;;;;;;39.13;18.20;;;1.40;99.90;;;;;;5015676;28;20688;-78
2023/03/02 07:51:53;;;;;;;41.30;17.55;;;1.40;99.90;;;;;;5018131;28;20026;-79
2023/03/02 07:54:19;;;;;;;44.72;19.00;;;1.50;99.90;;;;;;5011500;28;20478;-78
2023/03/02 07:56:44;;;;;;;41.15;18.63;;;1.50;99.90;;;;;;5014918;28;20095;-78
2023/03/02 07:59:11;;;;;;;37.97;19.05;;;1.60;99.90;;;;;;5014035;28;20041;-78
2023/03/02 08:01:37;;;;;;;42.15;20.38;;;1.60;99.90;;;;;;5007517;28;20478;-77
2023/03/02 08:04:03;;;;;;;37.35;18.00;;;1.60;99.90;;;;;;5020449;28;20110;-81
2023/03/02 08:06:28;;;;;;;38.35;17.92;;;1.60;99.90;;;;;;5015304;28;20065;-79
2023/03/02 08:08:54;;;;;;;38.17;19.08;;;1.70;99.90;;;;;;5014927;28;20026;-78
2023/03/02 08:11:20;;;;;;;41.63;19.27;;;1.70;99.90;;;;;;5012594;28;20021;-77
2023/03/02 08:13:46;;;;;;;44.72;19.65;;;1.70;99.90;;;;;;4931344;28;20456;-82
2023/03/02 08:16:13;;;;;;;40.15;18.35;;;1.70;99.90;;;;;;4937254;28;20569;-77
2023/03/02 08:18:40;;;;;;;40.88;18.83;;;1.80;99.90;;;;;;4929461;29;20091;-80
2023/03/02 08:21:13;;;;;;;38.88;19.35;;;1.70;99.90;;;;;;4934030;29;20560;-78
2023/03/02 08:23:39;;;;;;;38.28;18.95;;;1.70;99.90;;;;;;4931490;29;20046;-78
2023/03/02 08:26:05;;;;;;;39.40;17.85;;;1.80;99.90;;;;;;4938027;29;20106;-78
2023/03/02 08:28:30;;;;;;;38.90;17.48;;;1.80;99.90;;;;;;4929909;28;20107;-76
2023/03/02 08:30:58;;;;;;;42.13;18.92;;;1.80;99.90;;;;;;4932311;29;20071;-76
2023/03/02 08:33:25;;;;;;;35.90;18.23;;;1.90;99.90;;;;;;4926845;28;20032;-76
2023/03/02 08:35:55;;;;;;;37.90;18.33;;;1.90;99.90;;;;;;4934493;29;20393;-76
2023/03/02 08:38:22;;;;;;;43.72;19.83;;;2.00;99.90;;;;;;4933558;29;20027;-77
2023/03/02 08:40:50;;;;;;;41.75;18.83;;;2.10;99.90;;;;;;4934186;28;20024;-76
2023/03/02 08:43:15;;;;;;;41.03;18.77;;;2.10;99.90;;;;;;4930497;29;20035;-78
2023/03/02 08:45:41;;;;;;;40.70;19.02;;;2.20;99.90;;;;;;4936830;29;20083;-77
2023/03/02 08:48:07;;;;;;;37.90;18.02;;;2.20;99.90;;;;;;4931308;29;20540;-79
2023/03/02 08:50:33;;;;;;;37.80;18.58;;;2.30;99.90;;;;;;4931119;29;20127;-78
2023/03/02 08:52:59;;;;;;;45.67;20.10;;;2.30;99.90;;;;;;4930522;28;20089;-77
2023/03/02 08:55:24;;;;;;;39.13;18.95;;;2.40;99.90;;;;;;4967769;23;20844;-81
2023/03/02 08:57:50;;;;;;;35.88;17.95;;;2.40;99.90;;;;;;4950036;28;20038;-81
2023/03/02 09:00:17;;;;;;;43.17;19.10;;;2.50;99.90;;;;;;4953336;28;20130;-79
2023/03/02 09:02:43;;;;;;;45.00;20.30;;;2.50;99.90;;;;;;4955272;28;20031;-82
2023/03/02 09:05:09;;;;;;;40.15;18.27;;;2.60;99.90;;;;;;4967277;28;20544;-82
2023/03/02 09:07:34;;;;;;;41.33;19.23;;;2.70;99.90;;;;;;4951918;28;20035;-83
2023/03/02 09:10:00;;;;;;;38.55;17.63;;;2.70;99.90;;;;;;4957317;28;20462;-83
2023/03/02 09:12:26;;;;;;;39.72;18.98;;;2.70;99.90;;;;;;4958310;28;20029;-83
2023/03/02 09:14:51;;;;;;;38.72;18.45;;;2.80;99.90;;;;;;4959389;28;20544;-84
2023/03/02 09:17:17;;;;;;;39.53;18.67;;;2.90;99.90;;;;;;4959361;28;20031;-83
2023/03/02 09:19:43;;;;;;;41.20;18.90;;;2.90;99.90;;;;;;4955914;28;20067;-84
2023/03/02 09:22:09;;;;;;;36.70;18.40;;;3.00;99.90;;;;;;4957944;28;20106;-85
2023/03/02 09:24:35;;;;;;;42.72;19.00;;;3.10;99.90;;;;;;4957862;28;20583;-85
2023/03/02 09:27:02;;;;;;;39.05;18.65;;;3.20;99.90;;;;;;4956384;28;20039;-84
2023/03/02 09:29:28;;;;;;;38.53;18.85;;;3.20;99.90;;;;;;4959394;28;20054;-83
2023/03/02 09:31:54;;;;;;;40.83;19.23;;;3.30;99.90;;;;;;4965273;28;20034;-85
2023/03/02 09:34:20;;;;;;;44.55;20.30;;;3.40;99.90;;;;;;4960734;28;20047;-84
2023/03/02 09:36:46;;;;;;;41.78;19.75;;;3.40;99.90;;;;;;4957913;28;20126;-82
2023/03/02 09:39:12;;;;;;;36.08;18.52;;;3.50;99.90;;;;;;4952615;28;20055;-82
2023/03/02 09:41:59;;;;;;;35.88;17.85;;;3.60;99.90;;;;;;4957878;28;20666;-82
2023/03/02 09:44:43;;;;;;;39.25;19.13;;;3.60;99.90;;;;;;4958496;28;20042;-82
2023/03/02 09:47:41;;;;;;;36.28;18.30;;;3.70;99.90;;;;;;4975050;28;20019;-82
2023/03/02 09:50:23;;;;;;;35.65;18.65;;;3.80;99.90;;;;;;4954620;28;20035;-82
2023/03/02 09:52:52;;;;;;;38.00;18.50;;;3.80;99.90;;;;;;4958810;28;20033;-83
2023/03/02 09:55:24;;;;;;;37.95;19.55;;;3.80;99.90;;;;;;4955983;28;20039;-80
2023/03/02 09:57:49;;;;;;;38.55;19.45;;;3.90;99.90;;;;;;4953779;28;20086;-81
2023/03/02 10:00:15;;;;;;;40.05;18.20;;;3.90;99.90;;;;;;4959623;28;20038;-80
2023/03/02 10:02:47;;;;;;;36.70;18.55;;;4.00;99.90;;;;;;4952672;28;20023;-80
2023/03/02 10:05:19;;;;;;;40.35;19.63;;;4.10;99.90;;;;;;4955484;28;20067;-81
2023/03/02 10:07:46;;;;;;;41.00;19.08;;;4.20;99.90;;;;;;4953051;28;20026;-82
2023/03/02 10:10:12;;;;;;;41.17;19.00;;;4.30;99.90;;;;;;4952549;28;20036;-82
2023/03/02 10:12:53;;;;;;;35.15;18.17;;;4.30;99.90;;;;;;4952317;28;20034;-83
2023/03/02 10:15:30;;;;;;;40.45;19.02;;;4.40;99.90;;;;;;4953593;28;20035;-82
2023/03/02 10:18:12;;;;;;;38.75;20.15;;;4.50;99.90;;;;;;4955334;28;20144;-83
2023/03/02 10:21:09;;;;;;;42.28;19.90;;;4.60;99.90;;;;;;4951044;28;20077;-83
2023/03/02 10:23:52;;;;;;;41.03;19.80;;;4.50;99.90;;;;;;4949268;28;20130;-83
2023/03/02 10:26:24;;;;;;;39.58;17.85;;;4.60;99.90;;;;;;4950426;28;20031;-81
2023/03/02 10:29:13;;;;;;;38.78;19.08;;;4.60;99.90;;;;;;4962191;28;20081;-83
2023/03/02 10:31:42;;;;;;;37.30;19.15;;;4.70;99.90;;;;;;4949012;28;20138;-82
2023/03/02 10:34:09;;;;;;;43.00;20.25;;;4.70;99.90;;;;;;4948991;28;20515;-82
2023/03/02 10:36:42;;;;;;;36.45;18.80;;;4.80;99.90;;;;;;4952590;28;20031;-84
2023/03/02 10:39:13;;;;;;;36.55;19.70;;;4.70;99.90;;;;;;4950386;28;20369;-83
2023/03/02 10:41:48;;;;;;;39.38;17.60;;;4.60;99.90;;;;;;4949642;28;20031;-82
2023/03/02 10:44:36;;;;;;;47.40;19.83;;;4.60;99.90;;;;;;4949142;28;20461;-80
2023/03/02 10:47:03;;;;;;;36.92;18.55;;;4.60;99.90;;;;;;4948736;28;20035;-80
2023/03/02 10:49:30;;;;;;;35.22;18.15;;;4.60;99.90;;;;;;4949289;28;20069;-80
2023/03/02 10:51:56;;;;;;;40.17;19.67;;;4.70;99.90;;;;;;4953852;28;20030;-80
2023/03/02 10:54:24;;;;;;;34.83;18.52;;;4.80;99.90;;;;;;4950485;28;20032;-81
2023/03/02 10:56:52;;;;;;;38.70;19.58;;;4.80;99.90;;;;;;4950647;28;20038;-82
2023/03/02 10:59:39;;;;;;;39.22;19.92;;;4.90;99.90;;;;;;4951443;28;20031;-80
2023/03/02 11:02:21;;;;;;;40.38;19.02;;;5.00;99.90;;;;;;4950669;28;20086;-82
2023/03/02 11:04:52;;;;;;;39.95;18.98;;;5.10;99.90;;;;;;4953486;28;20500;-81
2023/03/02 11:07:20;;;;;;;36.25;19.67;;;5.10;99.90;;;;;;4956885;28;20499;-80
2023/03/02 11:10:22;;;;;;;35.15;18.35;;;5.20;99.90;;;;;;4953841;28;20082;-79
2023/03/02 11:12:50;;;;;;;39.53;18.48;;;5.20;99.90;;;;;;4953144;28;20039;-80
2023/03/02 11:15:30;;;;;;;39.22;19.58;;;5.20;99.90;;;;;;4961749;28;20598;-81
2023/03/02 11:18:05;;;;;;;38.15;19.60;;;5.30;99.90;;;;;;4952588;28;20031;-81
2023/03/02 11:20:42;;;;;;;43.70;17.85;;;5.30;99.90;;;;;;4951156;28;20062;-80
2023/03/02 11:23:46;;;;;;;45.33;18.95;;;5.40;99.90;;;;;;4953662;28;20027;-80
2023/03/02 11:26:23;;;;;;;40.95;18.80;;;5.40;99.90;;;;;;4947810;28;20023;-81
2023/03/02 11:28:55;;;;;;;39.83;19.20;;;5.40;99.90;;;;;;4953944;28;20039;-80
2023/03/02 11:31:28;;;;;;;40.67;18.88;;;5.40;99.90;;;;;;4959680;28;20037;-80
2023/03/02 11:34:26;;;;;;;40.55;19.50;;;5.40;99.90;;;;;;4954556;28;20160;-79
2023/03/02 11:37:23;;;;;;;40.47;19.15;;;5.50;99.90;;;;;;4959219;28;20035;-78
2023/03/02 11:40:07;;;;;;;37.47;18.17;;;5.60;99.90;;;;;;4957063;28;20464;-79
2023/03/02 11:42:36;;;;;;;36.08;18.20;;;5.50;99.90;;;;;;4955668;28;20038;-80
2023/03/02 11:45:13;;;;;;;40.03;19.45;;;5.60;99.90;;;;;;4959471;28;20047;-81
2023/03/02 11:47:53;;;;;;;42.75;20.00;;;5.60;99.90;;;;;;4955888;28;20027;-81
2023/03/02 11:50:19;;;;;;;36.92;18.08;;;5.80;99.90;;;;;;4954687;28;20145;-83
2023/03/02 11:52:56;;;;;;;39.95;19.08;;;5.80;99.90;;;;;;4964325;28;20035;-79
2023/03/02 11:55:25;;;;;;;35.90;19.02;;;5.80;99.90;;;;;;4970274;28;20026;-80
2023/03/02 11:58:02;;;;;;;34.88;18.42;;;5.80;99.90;;;;;;4957688;28;20517;-79
2023/03/02 12:00:43;;;;;;;37.85;19.50;;;5.80;99.90;;;;;;4953417;28;20158;-80
2023/03/02 12:03:09;;;;;;;38.60;19.77;;;5.90;99.90;;;;;;4956873;28;20047;-80
2023/03/02 12:05:38;;;;;;;37.85;19.88;;;6.00;99.90;;;;;;4955311;28;20113;-81
2023/03/02 12:08:24;;;;;;;39.92;20.05;;;6.10;99.90;;;;;;4958708;28;20456;-81
2023/03/02 12:11:04;;;;;;;34.83;18.85;;;6.10;99.90;;;;;;4951288;28;20043;-81
2023/03/02 12:13:39;;;;;;;39.05;19.75;;;6.20;99.90;;;;;;4955696;28;20118;-81
2023/03/02 12:16:34;;;;;;;34.58;18.83;;;6.30;99.90;;;;;;4961935;28;20039;-81
2023/03/02 12:19:27;;;;;;;38.58;20.35;;;6.40;99.90;;;;;;4958415;28;20030;-82
2023/03/02 12:22:08;;;;;;;41.08;20.48;;;6.40;99.90;;;;;;4953515;28;20496;-83
2023/03/02 12:24:36;;;;;;;38.58;19.95;;;6.40;99.90;;;;;;4951778;28;20081;-81
2023/03/02 12:27:21;;;;;;;37.42;18.52;;;6.50;99.90;;;;;;4950225;28;20046;-81
2023/03/02 12:29:50;;;;;;;32.05;19.55;;;6.50;99.90;;;;;;4949694;28;20027;-81
2023/03/02 12:32:26;;;;;;;39.38;19.60;;;6.50;99.90;;;;;;4954050;28;20074;-81
2023/03/02 12:35:00;;;;;;;41.40;20.02;;;6.40;99.90;;;;;;4963547;28;20102;-82
2023/03/02 12:37:37;;;;;;;37.55;20.08;;;6.50;99.90;;;;;;4958563;28;20031;-81
2023/03/02 12:40:39;;;;;;;37.47;20.38;;;6.40;99.90;;;;;;4957681;28;20149;-82
2023/03/02 12:43:14;;;;;;;34.80;18.30;;;6.40;99.90;;;;;;4957594;28;20019;-82
2023/03/02 12:45:55;;;;;;;40.00;18.52;;;6.40;99.90;;;;;;4956164;28;20030;-81
2023/03/02 12:48:45;;;;;;;35.00;18.85;;;6.40;99.90;;;;;;4957048;28;20153;-82